Terminal Aerodrome Forecast
Issued by NWS

Home | Current Version | Previous Version | Graphics & Text | Print | Product List | Glossary On
Versions: 1 2 3 4 5 6 7 8 9 10 11 12 13 14 15 16
767
FTUS43 KICT 101555 AAA
TAFCNU
TAF AMD
KCNU 101555Z 1016/1112 21015G24KT P6SM SKC
     FM102300 28009KT P6SM SKC
     FM110300 36007KT P6SM SKC=

USA.gov is the U.S. government's official web portal to all federal, state and local government web resources and services.